Zeona, South Dakota
Current Conditions -  °F | °C
As of 12:55 AM on Wednesday 26 Nov 2014 (Local Time) from KSPF Reporting Station
Overcast Overcast  
Wind Chill: 13°   Ceiling: 900
Heat Index: 25°   Visibility: 10mi
Dew Point: 21°   Wind: 13mph
Humidity: 86%   Direction: 350°N
Pressure: 30.13"   Gusts: NA
Location:  45.0528°N, 102.806°W
Report Text: KSPF 260755Z AUTO 35011KT 10SM OVC009 M04/M06 A3013 RMK AO2
Loading
Personal Weather Stations






























Interactive Weather Map New forecast layout! Learn more

10-Day Weather Forecast

Advertisements
Track Severe Weather on mobile